map of HHN home
HHN - Airport
Location
City:  Hahn, Rhineland-Palatinate, Germany
Name:Frankfurt-Hahn
ICAO:EDFH
IATA:HHN

Details
Type:Airport (Flugplatz, Airfield)
Use:Public/Civil
Latitude:4956'55"N (49.948672)
Longitude:715'50"E (7.263892)
Datum:WGS 1984
Elevation:1649 ft (503 m)
Variation:2.13E (WMM2015 magnetic declination)
0.13 annual change
Runways:1
Longest:12467 × 148 ft (3800 × 45 m), paved

Time
Time Zone:UTC+1 (DST+2)
Local Time:

Weather
METAR:EDFH 220320Z 16006KT CAVOK M09/M10 Q1012
TAF:EDFH 212300Z 2200/2224 19005KT CAVOK
BECMG 2206/2208 18010KT PROB30
TEMPO 2208/2212 0200 FZFG OVC001
TEMPO 2221/2224 2500 -SN BKN006

Related Locations
Nearby:
Farthest:CHT: 11972 mi / 19267 km
Waitangi [Tuuta], CIT, NZ

Find:

   beyond  
but within

Other Information
Maps:
NOTAMs:
Links:
Sources:

  
  • flag of Germany
  • flag of Rhineland-Palatinate
  

Sectional Chart

Flight Planning
at skyvector.com

Satellite Image

Google Maps Satellite view

 

Copyright © 2004-2019 Karl L. Swartz. All rights reserved.
The Great Circle Mapper name and logo are trademarks of the Great Circle Mapper.
All other trademarks mentioned herein belong to their respective owners.
Please see credits for attibutions and further copyright information.

  Follow gcmap on Facebook Follow gcmap on Twitter Follow gcmap on Google+ GCmap on LinkedIn

hCard Microformat

Geo Microformat